createdAt,value
2023-04-30T00:00:11.207Z,9.00
2023-04-30T00:02:38.504Z,8.33
2023-04-30T00:05:06.068Z,9.57
2023-04-30T00:07:33.755Z,8.57
2023-04-30T00:10:01.102Z,8.30
2023-04-30T00:12:28.321Z,8.23
2023-04-30T00:14:56.312Z,8.33
2023-04-30T00:17:23.859Z,9.27
2023-04-30T00:19:51.799Z,8.37
2023-04-30T00:22:19.057Z,8.50
2023-04-30T00:24:46.342Z,9.13
2023-04-30T00:27:13.499Z,8.40
2023-04-30T00:29:41.159Z,8.50
2023-04-30T00:32:08.513Z,8.00
2023-04-30T00:34:35.772Z,7.97
2023-04-30T00:37:03.592Z,7.40
2023-04-30T00:39:30.771Z,7.37
2023-04-30T00:41:58.064Z,7.83
2023-04-30T00:44:25.988Z,6.63
2023-04-30T00:46:53.173Z,7.03
2023-04-30T00:49:21.009Z,6.77
2023-04-30T00:51:48.828Z,6.60
2023-04-30T00:54:16.204Z,6.63
2023-04-30T00:56:43.778Z,5.37
2023-04-30T00:59:14.079Z,5.57
2023-04-30T01:01:42.054Z,5.40
2023-04-30T01:04:09.748Z,5.33
2023-04-30T01:06:37.285Z,5.00
2023-04-30T01:09:04.936Z,4.87
2023-04-30T01:11:36.970Z,5.17
2023-04-30T01:14:04.256Z,5.67
2023-04-30T01:16:34.316Z,6.47
2023-04-30T01:19:06.428Z,6.13
2023-04-30T01:21:33.944Z,6.60
2023-04-30T01:24:04.714Z,6.00
2023-04-30T01:26:50.929Z,5.57
2023-04-30T01:29:19.749Z,4.97
2023-04-30T01:31:47.197Z,5.37
2023-04-30T01:34:14.492Z,5.37
2023-04-30T01:36:52.061Z,5.33
2023-04-30T01:39:25.457Z,5.40
2023-04-30T01:42:03.527Z,5.40
2023-04-30T01:44:49.847Z,5.83
2023-04-30T01:47:37.317Z,5.97
2023-04-30T01:50:21.776Z,5.87
2023-04-30T01:52:59.556Z,6.53
2023-04-30T01:55:33.662Z,6.37
2023-04-30T01:58:02.056Z,6.10
2023-04-30T02:00:30.844Z,6.53
2023-04-30T02:02:58.584Z,7.20
2023-04-30T02:05:26.156Z,6.63
2023-04-30T02:07:53.712Z,7.40
2023-04-30T02:10:25.407Z,6.63
2023-04-30T02:12:53.161Z,6.57
2023-04-30T02:15:21.113Z,7.03
2023-04-30T02:17:48.374Z,7.20
2023-04-30T02:20:15.858Z,7.23
2023-04-30T02:22:43.405Z,6.40
2023-04-30T02:25:12.881Z,6.37
2023-04-30T02:27:41.566Z,6.70
2023-04-30T02:30:10.310Z,6.83
2023-04-30T02:32:37.509Z,5.60
2023-04-30T02:35:04.927Z,5.97
2023-04-30T02:37:32.253Z,5.53
2023-04-30T02:39:59.436Z,6.10
2023-04-30T02:42:27.100Z,5.80
2023-04-30T02:44:54.309Z,6.00
2023-04-30T02:47:21.574Z,5.30
2023-04-30T02:49:48.739Z,5.77
2023-04-30T02:52:16.026Z,5.23
2023-04-30T02:54:43.294Z,5.37
2023-04-30T02:57:10.545Z,5.23
2023-04-30T02:59:38.938Z,5.60
2023-04-30T03:02:06.465Z,4.90
2023-04-30T03:04:33.745Z,5.07
2023-04-30T03:07:01.072Z,5.13
2023-04-30T03:09:28.320Z,4.80
2023-04-30T03:11:55.572Z,4.33
2023-04-30T03:14:23.614Z,4.63
2023-04-30T03:16:50.801Z,4.97
2023-04-30T03:19:22.014Z,4.20
2023-04-30T03:21:49.263Z,4.50
2023-04-30T03:24:16.540Z,4.23
2023-04-30T03:26:43.692Z,3.77
2023-04-30T03:29:10.986Z,4.80
2023-04-30T03:31:38.610Z,4.13
2023-04-30T03:34:06.008Z,4.03
2023-04-30T03:36:33.774Z,4.40
2023-04-30T03:39:01.076Z,4.73
2023-04-30T03:41:28.365Z,4.27
2023-04-30T03:43:55.674Z,3.80
2023-04-30T03:46:23.169Z,4.07
2023-04-30T03:48:50.868Z,3.63
2023-04-30T03:51:20.427Z,3.83
2023-04-30T03:53:47.706Z,3.80
2023-04-30T03:56:15.057Z,3.97
2023-04-30T03:58:43.135Z,4.13
2023-04-30T04:01:10.629Z,4.43
2023-04-30T04:03:38.534Z,4.00
2023-04-30T04:06:06.159Z,4.17
2023-04-30T04:08:34.108Z,3.63
2023-04-30T04:11:01.425Z,3.77
2023-04-30T04:13:28.633Z,3.90
2023-04-30T04:15:55.932Z,3.83
2023-04-30T04:18:23.393Z,3.87
2023-04-30T04:20:50.871Z,3.80
2023-04-30T04:23:18.484Z,4.13
2023-04-30T04:25:46.601Z,3.63
2023-04-30T04:28:14.033Z,3.97
2023-04-30T04:30:41.630Z,3.83
2023-04-30T04:33:08.889Z,4.10
2023-04-30T04:35:36.196Z,3.87
2023-04-30T04:38:03.387Z,4.07
2023-04-30T04:40:31.744Z,3.97
2023-04-30T04:42:59.407Z,3.67
2023-04-30T04:45:27.016Z,4.00
2023-04-30T04:47:54.586Z,3.93
2023-04-30T04:50:22.999Z,3.67
2023-04-30T04:52:50.468Z,3.67
2023-04-30T04:55:17.741Z,3.77
2023-04-30T04:57:44.961Z,3.50
2023-04-30T05:00:13.118Z,3.20
2023-04-30T05:02:40.445Z,3.43
2023-04-30T05:05:07.881Z,3.80
2023-04-30T05:07:35.169Z,3.97
2023-04-30T05:10:03.068Z,3.73
2023-04-30T05:12:30.988Z,3.70
2023-04-30T05:14:58.203Z,4.77
2023-04-30T05:17:25.551Z,4.37
2023-04-30T05:19:53.950Z,3.57
2023-04-30T05:22:21.596Z,3.57
2023-04-30T05:24:48.780Z,3.10
2023-04-30T05:27:16.674Z,3.37
2023-04-30T05:29:43.848Z,3.60
2023-04-30T05:32:11.510Z,3.63
2023-04-30T05:34:38.823Z,3.53
2023-04-30T05:37:06.064Z,2.83
2023-04-30T05:39:33.264Z,3.13
2023-04-30T05:42:02.183Z,3.67
2023-04-30T05:44:30.429Z,3.40
2023-04-30T05:46:57.655Z,3.13
2023-04-30T05:49:25.105Z,4.33
2023-04-30T05:51:52.268Z,3.23
2023-04-30T05:54:19.421Z,4.03
2023-04-30T05:56:46.665Z,3.30
2023-04-30T05:59:14.003Z,3.60
2023-04-30T06:01:41.780Z,3.60
2023-04-30T06:04:09.328Z,3.37
2023-04-30T06:06:36.886Z,3.73
2023-04-30T06:09:04.192Z,3.00
2023-04-30T06:11:31.772Z,3.50
2023-04-30T06:13:59.080Z,3.50
2023-04-30T06:16:26.326Z,3.27
2023-04-30T06:18:54.071Z,3.30
2023-04-30T06:21:21.429Z,3.90
2023-04-30T06:23:48.570Z,4.87
2023-04-30T06:26:15.843Z,18.70
2023-04-30T06:28:43.246Z,3.33
2023-04-30T06:31:10.839Z,2.93
2023-04-30T06:33:38.000Z,3.20
2023-04-30T06:36:05.914Z,3.17
2023-04-30T06:38:33.104Z,3.17
2023-04-30T06:41:00.560Z,3.47
2023-04-30T06:43:27.749Z,2.67
2023-04-30T06:45:54.995Z,3.00
2023-04-30T06:48:23.152Z,3.27
2023-04-30T06:50:50.395Z,3.33
2023-04-30T06:53:17.804Z,3.50
2023-04-30T06:55:48.753Z,3.30
2023-04-30T06:58:15.999Z,3.13
2023-04-30T07:00:43.670Z,2.83
2023-04-30T07:03:10.964Z,2.93
2023-04-30T07:05:38.349Z,2.97
2023-04-30T07:08:07.272Z,3.10
2023-04-30T07:10:34.570Z,3.00
2023-04-30T07:13:01.777Z,2.97
2023-04-30T07:15:29.027Z,3.20
2023-04-30T07:17:56.313Z,2.90
2023-04-30T07:20:23.615Z,3.20
2023-04-30T07:22:50.951Z,3.47
2023-04-30T07:25:18.169Z,3.27
2023-04-30T07:27:45.942Z,3.70
2023-04-30T07:30:13.960Z,2.90
2023-04-30T07:32:41.566Z,3.27
2023-04-30T07:35:08.980Z,3.20
2023-04-30T07:37:36.301Z,3.30
2023-04-30T07:40:04.296Z,3.30
2023-04-30T07:42:34.275Z,3.73
2023-04-30T07:45:04.241Z,3.07
2023-04-30T07:47:31.531Z,3.23
2023-04-30T07:49:58.761Z,3.10
2023-04-30T07:52:25.994Z,3.27
2023-04-30T07:54:53.170Z,3.40
2023-04-30T07:57:20.491Z,3.00
2023-04-30T07:59:50.526Z,3.20
2023-04-30T08:02:19.661Z,3.10
2023-04-30T08:04:47.181Z,3.07
2023-04-30T08:07:16.002Z,3.03
2023-04-30T08:09:43.193Z,8.77
2023-04-30T08:12:10.773Z,3.93
2023-04-30T08:14:37.923Z,3.10
2023-04-30T08:17:05.470Z,3.00
2023-04-30T08:19:32.804Z,3.27
2023-04-30T08:22:01.123Z,3.10
2023-04-30T08:24:28.380Z,3.23
2023-04-30T08:26:55.726Z,2.60
2023-04-30T08:29:22.891Z,2.70
2023-04-30T08:31:50.109Z,3.00
2023-04-30T08:34:17.408Z,3.00
2023-04-30T08:36:44.666Z,2.67
2023-04-30T08:39:12.982Z,2.20
2023-04-30T08:41:40.460Z,2.63
2023-04-30T08:44:08.616Z,2.80
2023-04-30T08:46:37.717Z,2.70
2023-04-30T08:49:05.091Z,2.60
2023-04-30T08:51:33.598Z,3.40
2023-04-30T08:54:00.829Z,3.07
2023-04-30T08:56:29.560Z,2.70
2023-04-30T08:58:56.772Z,2.80
2023-04-30T09:01:24.388Z,2.50
2023-04-30T09:03:51.881Z,2.77
2023-04-30T09:06:19.204Z,2.23
2023-04-30T09:08:47.604Z,2.97
2023-04-30T09:11:25.226Z,2.63
2023-04-30T09:13:53.246Z,2.60
2023-04-30T09:16:21.238Z,2.77
2023-04-30T09:18:48.764Z,2.30
2023-04-30T09:21:16.124Z,2.47
2023-04-30T09:23:56.531Z,2.53
2023-04-30T09:26:28.197Z,2.80
2023-04-30T09:28:57.508Z,3.33
2023-04-30T09:31:26.549Z,2.83
2023-04-30T09:33:55.308Z,2.43
2023-04-30T09:36:23.570Z,2.30
2023-04-30T09:38:53.254Z,2.40
2023-04-30T09:41:24.549Z,2.13
2023-04-30T09:43:51.792Z,2.70
2023-04-30T09:46:22.350Z,2.20
2023-04-30T09:48:57.787Z,2.30
2023-04-30T09:51:25.012Z,2.63
2023-04-30T09:53:53.796Z,2.60
2023-04-30T09:56:23.070Z,3.00
2023-04-30T09:58:58.862Z,2.90
2023-04-30T10:01:27.223Z,2.80
2023-04-30T10:03:55.980Z,2.50
2023-04-30T10:06:23.738Z,2.53
2023-04-30T10:08:57.231Z,2.27
2023-04-30T10:11:27.411Z,2.40
2023-04-30T10:14:01.879Z,2.17
2023-04-30T10:16:44.479Z,2.37
2023-04-30T10:19:15.213Z,2.40
2023-04-30T10:21:43.790Z,2.20
2023-04-30T10:24:11.629Z,2.73
2023-04-30T10:26:39.168Z,2.80
2023-04-30T10:29:06.521Z,2.33
2023-04-30T10:31:34.495Z,2.27
2023-04-30T10:34:05.077Z,2.40
2023-04-30T10:36:38.642Z,2.40
2023-04-30T10:39:06.545Z,2.33
2023-04-30T10:41:33.806Z,2.30
2023-04-30T10:44:02.814Z,2.23
2023-04-30T10:46:30.502Z,2.33
2023-04-30T10:48:58.323Z,2.30
2023-04-30T10:51:44.917Z,2.43
2023-04-30T10:54:12.337Z,2.40
2023-04-30T10:56:39.782Z,2.00
2023-04-30T10:59:07.298Z,1.93
2023-04-30T11:01:54.621Z,2.37
2023-04-30T11:04:22.267Z,2.43
2023-04-30T11:06:53.930Z,2.40
2023-04-30T11:09:21.349Z,2.40
2023-04-30T11:11:50.311Z,2.07
2023-04-30T11:14:21.388Z,1.97
2023-04-30T11:16:54.101Z,2.17
2023-04-30T11:19:25.004Z,2.03
2023-04-30T11:22:05.604Z,2.17
2023-04-30T11:24:51.643Z,2.70
2023-04-30T11:27:25.219Z,2.13
2023-04-30T11:29:53.113Z,2.33
2023-04-30T11:32:21.627Z,2.10
2023-04-30T11:34:49.021Z,2.10
2023-04-30T11:37:29.857Z,1.93
2023-04-30T11:39:58.334Z,1.90
2023-04-30T11:42:25.536Z,2.10
2023-04-30T11:44:52.738Z,1.80
2023-04-30T11:47:20.006Z,2.00
2023-04-30T11:49:47.259Z,2.00
2023-04-30T11:52:14.555Z,2.03
2023-04-30T11:54:41.784Z,2.00
2023-04-30T11:57:09.093Z,2.23
2023-04-30T11:59:42.259Z,2.00
2023-04-30T12:02:11.631Z,2.20
2023-04-30T12:04:40.327Z,2.20
2023-04-30T12:07:09.772Z,2.23
2023-04-30T12:09:53.528Z,2.10
2023-04-30T12:12:27.809Z,2.10
2023-04-30T12:14:55.405Z,2.20
2023-04-30T12:17:33.039Z,2.03
2023-04-30T12:20:00.324Z,2.17
2023-04-30T12:22:28.120Z,2.10
2023-04-30T12:24:56.550Z,2.23
2023-04-30T12:27:23.943Z,1.87
2023-04-30T12:29:54.798Z,2.50
2023-04-30T12:32:22.956Z,2.03
2023-04-30T12:34:50.405Z,1.80
2023-04-30T12:37:17.794Z,2.10
2023-04-30T12:39:45.018Z,1.83
2023-04-30T12:42:12.438Z,2.03
2023-04-30T12:44:44.554Z,2.37
2023-04-30T12:47:12.160Z,1.80
2023-04-30T12:49:39.462Z,1.90
2023-04-30T12:52:09.459Z,2.10
2023-04-30T12:54:37.331Z,2.20
2023-04-30T12:57:04.755Z,2.13
2023-04-30T12:59:32.923Z,2.00
2023-04-30T13:02:27.084Z,1.93
2023-04-30T13:04:54.801Z,1.90
2023-04-30T13:07:22.140Z,2.10
2023-04-30T13:09:49.295Z,2.07
2023-04-30T13:12:16.642Z,1.90
2023-04-30T13:14:43.902Z,1.67
2023-04-30T13:17:13.852Z,1.90
2023-04-30T13:19:41.725Z,2.00
2023-04-30T13:22:09.186Z,1.60
2023-04-30T13:24:36.899Z,2.10
2023-04-30T13:27:04.208Z,1.60
2023-04-30T13:29:31.892Z,1.67
2023-04-30T13:31:59.308Z,2.07
2023-04-30T13:34:26.875Z,1.87
2023-04-30T13:36:54.662Z,2.03
2023-04-30T13:39:24.027Z,1.73
2023-04-30T13:41:51.425Z,1.60
2023-04-30T13:44:18.589Z,1.80
2023-04-30T13:46:46.104Z,1.80
2023-04-30T13:49:13.468Z,1.80
2023-04-30T13:51:40.751Z,1.90
2023-04-30T13:54:07.997Z,1.43
2023-04-30T13:56:35.333Z,1.90
2023-04-30T13:59:03.299Z,2.00
2023-04-30T14:01:32.809Z,1.60
2023-04-30T14:04:00.508Z,1.63
2023-04-30T14:06:29.458Z,1.67
2023-04-30T14:08:56.852Z,1.80
2023-04-30T14:11:24.116Z,1.47
2023-04-30T14:13:51.346Z,1.57
2023-04-30T14:16:19.481Z,1.50
2023-04-30T14:18:47.516Z,1.33
2023-04-30T14:21:14.715Z,1.30
2023-04-30T14:23:41.972Z,1.77
2023-04-30T14:26:09.263Z,1.43
2023-04-30T14:28:36.612Z,1.60
2023-04-30T14:31:03.870Z,1.47
2023-04-30T14:33:31.877Z,1.40
2023-04-30T14:36:02.103Z,1.40
2023-04-30T14:38:30.856Z,1.37
2023-04-30T14:40:58.131Z,1.37
2023-04-30T14:43:25.605Z,1.50
2023-04-30T14:45:52.883Z,1.30
2023-04-30T14:48:20.811Z,1.20
2023-04-30T14:50:48.099Z,1.13
2023-04-30T14:53:15.560Z,1.60
2023-04-30T14:55:43.665Z,1.30
2023-04-30T14:58:10.890Z,1.57
2023-04-30T15:00:38.148Z,1.50
2023-04-30T15:03:05.570Z,1.50
2023-04-30T15:05:33.020Z,1.33
2023-04-30T15:08:01.144Z,1.47
2023-04-30T15:10:28.406Z,1.60
2023-04-30T15:12:55.703Z,1.67
2023-04-30T15:15:27.844Z,1.50
2023-04-30T15:17:59.381Z,1.23
2023-04-30T15:20:26.866Z,1.40
2023-04-30T15:22:55.022Z,1.40
2023-04-30T15:25:24.114Z,1.60
2023-04-30T15:27:54.291Z,4.23
2023-04-30T15:30:22.026Z,1.93
2023-04-30T15:32:50.437Z,2.00
2023-04-30T15:35:17.943Z,2.00
2023-04-30T15:37:45.248Z,1.70
2023-04-30T15:40:15.255Z,1.40
2023-04-30T15:42:42.758Z,1.57
2023-04-30T15:45:10.515Z,1.60
2023-04-30T15:47:41.194Z,1.60
2023-04-30T15:50:09.011Z,1.50
2023-04-30T15:52:38.854Z,3.20
2023-04-30T15:55:08.336Z,2.20
2023-04-30T15:57:35.615Z,1.40
2023-04-30T16:00:04.322Z,1.60
2023-04-30T16:02:51.920Z,1.57
2023-04-30T16:05:19.313Z,1.70
2023-04-30T16:07:46.598Z,1.53
2023-04-30T16:10:13.919Z,1.57
2023-04-30T16:12:41.223Z,1.77
2023-04-30T16:15:09.431Z,1.60
2023-04-30T16:17:36.778Z,1.80
2023-04-30T16:20:04.235Z,4.77
2023-04-30T16:22:34.054Z,1.70
2023-04-30T16:25:01.350Z,1.50
2023-04-30T16:27:28.785Z,1.90
2023-04-30T16:29:56.277Z,1.70
2023-04-30T16:32:23.938Z,1.47
2023-04-30T16:34:52.160Z,1.90
2023-04-30T16:37:19.377Z,1.70
2023-04-30T16:39:46.934Z,2.00
2023-04-30T16:42:14.172Z,4.70
2023-04-30T16:44:41.716Z,3.73
2023-04-30T16:47:08.990Z,1.63
2023-04-30T16:49:36.257Z,1.60
2023-04-30T16:52:03.804Z,1.83
2023-04-30T16:54:31.183Z,1.73
2023-04-30T16:56:58.475Z,1.37
2023-04-30T16:59:26.943Z,1.33
2023-04-30T17:01:56.519Z,1.60
2023-04-30T17:04:23.878Z,1.70
2023-04-30T17:06:51.303Z,1.40
2023-04-30T17:09:19.791Z,1.70
2023-04-30T17:11:47.137Z,1.77
2023-04-30T17:14:14.393Z,2.30
2023-04-30T17:16:41.620Z,1.60
2023-04-30T17:19:08.848Z,2.47
2023-04-30T17:21:36.319Z,1.70
2023-04-30T17:24:03.932Z,1.70
2023-04-30T17:26:31.648Z,1.93
2023-04-30T17:28:58.932Z,1.90
2023-04-30T17:31:26.894Z,1.93
2023-04-30T17:33:54.256Z,1.90
2023-04-30T17:36:21.516Z,1.90
2023-04-30T17:38:48.797Z,1.60
2023-04-30T17:41:16.063Z,1.80
2023-04-30T17:43:43.444Z,1.60
2023-04-30T17:46:11.092Z,2.30
2023-04-30T17:48:38.304Z,1.70
2023-04-30T17:51:05.862Z,1.77
2023-04-30T17:53:33.701Z,2.20
2023-04-30T17:56:01.383Z,2.23
2023-04-30T17:58:30.381Z,2.47
2023-04-30T18:00:58.928Z,2.30
2023-04-30T18:03:26.495Z,3.10
2023-04-30T18:05:53.800Z,2.40
2023-04-30T18:08:21.130Z,2.27
2023-04-30T18:10:49.099Z,2.03
2023-04-30T18:13:16.529Z,2.20
2023-04-30T18:15:43.919Z,2.23
2023-04-30T18:18:11.254Z,2.30
2023-04-30T18:20:40.979Z,2.27
2023-04-30T18:23:10.066Z,2.33
2023-04-30T18:25:37.485Z,2.30
2023-04-30T18:28:04.822Z,2.50
2023-04-30T18:30:32.079Z,2.97
2023-04-30T18:32:59.750Z,2.40
2023-04-30T18:35:28.350Z,3.20
2023-04-30T18:37:55.910Z,2.60
2023-04-30T18:40:23.664Z,2.73
2023-04-30T18:42:51.362Z,3.00
2023-04-30T18:45:19.149Z,2.93
2023-04-30T18:47:46.549Z,3.30
2023-04-30T18:50:17.354Z,2.93
2023-04-30T18:52:45.111Z,2.87
2023-04-30T18:55:13.937Z,3.90
2023-04-30T18:57:42.474Z,3.43
2023-04-30T19:00:10.506Z,3.57
2023-04-30T19:02:37.950Z,3.23
2023-04-30T19:05:05.452Z,4.57
2023-04-30T19:07:32.765Z,5.03
2023-04-30T19:10:00.046Z,4.77
2023-04-30T19:12:27.482Z,4.40
2023-04-30T19:14:54.774Z,4.97
2023-04-30T19:17:22.390Z,9.03
2023-04-30T19:19:51.411Z,7.83
2023-04-30T19:22:18.594Z,4.17
2023-04-30T19:24:45.770Z,3.83
2023-04-30T19:27:12.941Z,3.73
2023-04-30T19:29:40.157Z,3.87
2023-04-30T19:32:07.568Z,4.03
2023-04-30T19:34:34.916Z,3.93
2023-04-30T19:37:02.125Z,11.07
2023-04-30T19:39:30.522Z,23.30
2023-04-30T19:41:57.840Z,17.80
2023-04-30T19:44:25.102Z,13.63
2023-04-30T19:46:52.464Z,9.90
2023-04-30T19:49:19.601Z,8.87
2023-04-30T19:51:46.945Z,8.47
2023-04-30T19:54:14.503Z,8.20
2023-04-30T19:56:42.223Z,7.83
2023-04-30T19:59:09.999Z,7.27
2023-04-30T20:01:38.312Z,7.10
2023-04-30T20:04:06.260Z,5.40
2023-04-30T20:06:33.785Z,5.53
2023-04-30T20:09:01.301Z,5.70
2023-04-30T20:11:28.979Z,5.93
2023-04-30T20:13:56.375Z,5.93
2023-04-30T20:16:23.904Z,6.60
2023-04-30T20:18:51.238Z,6.53
2023-04-30T20:21:21.398Z,5.97
2023-04-30T20:23:48.814Z,6.00
2023-04-30T20:26:16.089Z,6.87
2023-04-30T20:28:44.255Z,5.87
2023-04-30T20:31:11.941Z,5.97
2023-04-30T20:33:41.181Z,7.40
2023-04-30T20:36:08.512Z,10.10
2023-04-30T20:38:35.710Z,11.17
2023-04-30T20:41:02.927Z,10.47
2023-04-30T20:43:29.833Z,9.67
2023-04-30T20:46:00.156Z,8.97
2023-04-30T20:48:27.141Z,12.37
2023-04-30T20:50:54.155Z,12.23
2023-04-30T20:53:21.125Z,10.87
2023-04-30T20:55:47.974Z,11.47
2023-04-30T20:58:14.846Z,11.23
2023-04-30T21:00:41.692Z,12.43
2023-04-30T21:03:09.550Z,12.87
2023-04-30T21:05:36.524Z,13.33
2023-04-30T21:08:03.375Z,13.33
2023-04-30T21:10:35.389Z,13.53
2023-04-30T21:13:05.069Z,12.67
2023-04-30T21:15:36.186Z,15.97
2023-04-30T21:18:03.400Z,14.57
2023-04-30T21:20:31.377Z,14.60
2023-04-30T21:22:58.579Z,15.33
2023-04-30T21:25:25.535Z,17.00
2023-04-30T21:27:52.549Z,15.30
2023-04-30T21:30:22.296Z,16.13
2023-04-30T21:32:50.639Z,16.73
2023-04-30T21:35:17.653Z,17.53
2023-04-30T21:37:44.653Z,19.37
2023-04-30T21:40:11.673Z,17.10
2023-04-30T21:42:39.182Z,17.53
2023-04-30T21:45:06.796Z,17.53
2023-04-30T21:47:33.569Z,18.17
2023-04-30T21:50:00.433Z,17.20
2023-04-30T21:52:27.509Z,18.13
2023-04-30T21:54:54.306Z,17.40
2023-04-30T21:57:21.496Z,18.17
2023-04-30T21:59:48.309Z,18.50
2023-04-30T22:02:23.771Z,19.37
2023-04-30T22:04:51.455Z,20.03
2023-04-30T22:07:20.009Z,19.47
2023-04-30T22:09:46.980Z,19.67
2023-04-30T22:12:14.822Z,19.27
2023-04-30T22:14:41.966Z,20.67
2023-04-30T22:17:08.877Z,19.97
2023-04-30T22:19:36.071Z,18.00
2023-04-30T22:22:03.033Z,19.20
2023-04-30T22:24:30.581Z,17.90
2023-04-30T22:26:57.454Z,16.37
2023-04-30T22:29:24.253Z,15.23
2023-04-30T22:31:51.237Z,14.87
2023-04-30T22:34:19.426Z,14.63
2023-04-30T22:36:47.026Z,14.37
2023-04-30T22:39:13.886Z,14.57
2023-04-30T22:41:41.662Z,14.00
2023-04-30T22:44:08.629Z,14.23
2023-04-30T22:46:36.806Z,14.07
2023-04-30T22:49:04.133Z,13.53
2023-04-30T22:51:31.699Z,12.67
2023-04-30T22:53:59.092Z,13.07
2023-04-30T22:56:26.564Z,12.90
2023-04-30T22:58:53.962Z,12.73
2023-04-30T23:01:21.179Z,12.50
2023-04-30T23:03:48.596Z,11.70
2023-04-30T23:06:15.923Z,11.97
2023-04-30T23:08:44.325Z,11.13
2023-04-30T23:11:11.617Z,11.27
2023-04-30T23:13:39.317Z,10.53
2023-04-30T23:16:09.027Z,11.20
2023-04-30T23:18:39.696Z,10.10
2023-04-30T23:21:06.991Z,11.07
2023-04-30T23:23:34.311Z,11.13
2023-04-30T23:26:01.580Z,11.07
2023-04-30T23:28:28.809Z,10.50
2023-04-30T23:30:57.764Z,10.50
2023-04-30T23:33:24.978Z,9.53
2023-04-30T23:35:55.227Z,11.40
2023-04-30T23:38:22.503Z,9.70
2023-04-30T23:40:49.784Z,8.97
2023-04-30T23:43:16.946Z,9.90
2023-04-30T23:45:44.253Z,9.67
2023-04-30T23:48:11.592Z,10.07
2023-04-30T23:50:38.982Z,8.70
2023-04-30T23:53:06.234Z,8.70
2023-04-30T23:55:33.989Z,8.27
2023-04-30T23:58:01.489Z,9.43
